createdAt,value
2018-11-29T07:28:45.207Z,-0.80
2018-11-29T07:31:13.657Z,-0.80
2018-11-29T07:33:42.098Z,-0.90
2018-11-29T07:36:10.513Z,-0.80
2018-11-29T07:38:38.958Z,-0.80
2018-11-29T07:41:07.410Z,-0.70
2018-11-29T07:43:35.834Z,-0.70
2018-11-29T07:46:04.265Z,-0.70
2018-11-29T07:48:32.689Z,-0.70
2018-11-29T07:51:01.099Z,-0.60
2018-11-29T07:53:29.487Z,-0.50
2018-11-29T07:55:57.902Z,-0.60
2018-11-29T07:58:26.387Z,-0.60
2018-11-29T08:00:54.821Z,-0.40
2018-11-29T08:03:23.209Z,-0.40
2018-11-29T08:05:51.613Z,-0.40
2018-11-29T08:08:20.033Z,-0.50
2018-11-29T08:10:48.402Z,-0.50
2018-11-29T08:13:16.827Z,-0.50
2018-11-29T08:15:45.238Z,-0.60
2018-11-29T08:18:13.677Z,-0.60
2018-11-29T08:20:42.110Z,-0.50
2018-11-29T08:23:10.486Z,-0.50
2018-11-29T08:25:38.886Z,-0.70
2018-11-29T08:28:07.260Z,-0.70
2018-11-29T08:30:35.725Z,-0.70
2018-11-29T08:33:04.238Z,-0.60
2018-11-29T08:35:32.742Z,-0.50
2018-11-29T08:38:01.178Z,-0.50
2018-11-29T08:40:29.602Z,-0.40
2018-11-29T08:42:58.006Z,-0.40
2018-11-29T08:45:26.430Z,-0.40
2018-11-29T08:47:54.876Z,-0.40
2018-11-29T08:50:23.354Z,-0.40
2018-11-29T08:52:51.761Z,-0.40
2018-11-29T08:55:20.678Z,-0.40
2018-11-29T08:57:49.530Z,-0.40
2018-11-29T09:00:19.023Z,-0.30
2018-11-29T09:02:47.480Z,-0.20
2018-11-29T09:05:15.926Z,-0.20
2018-11-29T09:07:45.478Z,-0.20
2018-11-29T09:10:20.002Z,-0.20
2018-11-29T09:12:48.424Z,-0.20
2018-11-29T09:15:17.446Z,-0.20
2018-11-29T09:17:45.929Z,-0.20
2018-11-29T09:20:17.277Z,-0.10
2018-11-29T09:22:45.655Z,-0.10
2018-11-29T09:25:16.726Z,0.00
2018-11-29T09:27:45.187Z,-0.10
2018-11-29T09:30:15.758Z,0.10
2018-11-29T09:32:44.938Z,0.20
2018-11-29T09:35:13.426Z,0.30
2018-11-29T09:37:41.935Z,0.40
2018-11-29T09:40:12.548Z,0.40
2018-11-29T09:42:41.131Z,0.40
2018-11-29T09:45:12.169Z,0.40
2018-11-29T09:47:40.570Z,0.40
2018-11-29T09:50:10.838Z,0.40
2018-11-29T09:52:39.852Z,0.50
2018-11-29T09:55:09.310Z,0.50
2018-11-29T09:57:37.699Z,0.50
2018-11-29T10:00:13.842Z,0.60
2018-11-29T10:02:43.354Z,0.60
2018-11-29T10:05:12.577Z,0.60
2018-11-29T10:07:41.011Z,0.60
2018-11-29T10:10:10.854Z,0.70
2018-11-29T10:12:40.087Z,0.60
2018-11-29T10:15:10.449Z,0.60
2018-11-29T10:17:38.871Z,0.70
2018-11-29T10:20:09.509Z,0.70
2018-11-29T10:22:38.121Z,0.80
2018-11-29T10:25:08.414Z,0.90
2018-11-29T10:27:36.822Z,0.90
2018-11-29T10:30:11.798Z,0.80
2018-11-29T10:32:40.224Z,0.60
2018-11-29T10:35:09.342Z,0.50
2018-11-29T10:37:37.878Z,0.40
2018-11-29T10:40:08.311Z,0.40
2018-11-29T10:42:36.766Z,0.40
2018-11-29T10:45:07.902Z,0.30
2018-11-29T10:47:36.315Z,0.40
2018-11-29T10:50:05.515Z,0.30
2018-11-29T10:52:33.919Z,0.40
2018-11-29T10:55:02.291Z,0.50
2018-11-29T10:57:30.713Z,0.60
2018-11-29T10:59:59.120Z,0.60
2018-11-29T11:02:28.934Z,0.70
2018-11-29T11:04:57.645Z,0.70
2018-11-29T11:07:26.080Z,0.90
2018-11-29T11:09:54.514Z,1.00
2018-11-29T11:12:22.923Z,1.30
2018-11-29T11:14:51.330Z,1.40
2018-11-29T11:17:19.795Z,1.40
2018-11-29T11:19:48.608Z,1.40
2018-11-29T11:22:17.041Z,1.50
2018-11-29T11:24:45.434Z,1.60
2018-11-29T11:27:14.161Z,1.30
2018-11-29T11:29:42.551Z,1.20
2018-11-29T11:32:10.977Z,1.20
2018-11-29T11:34:39.386Z,1.30
2018-11-29T11:37:07.757Z,1.30
2018-11-29T11:39:36.158Z,1.40
2018-11-29T11:42:04.577Z,1.60
2018-11-29T11:44:33.195Z,1.50
2018-11-29T11:47:01.606Z,1.30
2018-11-29T11:49:30.027Z,1.40
2018-11-29T11:51:58.446Z,1.40
2018-11-29T11:54:26.888Z,1.40
2018-11-29T11:58:53.090Z,1.40
2018-11-29T12:01:21.458Z,1.40
2018-11-29T12:03:49.838Z,1.60
2018-11-29T12:06:18.259Z,1.60
2018-11-29T12:08:46.676Z,1.60
2018-11-29T12:11:15.111Z,1.60
2018-11-29T12:13:43.526Z,1.60
2018-11-29T12:16:11.983Z,1.60
2018-11-29T12:18:40.363Z,1.50
2018-11-29T12:21:08.747Z,1.50
2018-11-29T12:23:37.147Z,1.60
2018-11-29T12:26:05.665Z,1.60
2018-11-29T12:28:34.158Z,1.60
2018-11-29T12:31:02.581Z,1.70
2018-11-29T12:33:30.941Z,2.00
2018-11-29T12:35:59.387Z,2.10
2018-11-29T12:38:27.771Z,2.10
2018-11-29T12:40:56.217Z,1.80
2018-11-29T12:43:24.623Z,1.70
2018-11-29T12:45:53.068Z,1.80
2018-11-29T12:48:21.462Z,1.70
2018-11-29T12:50:49.897Z,1.60
2018-11-29T12:53:18.367Z,1.60
2018-11-29T12:55:46.779Z,1.50
2018-11-29T12:58:15.148Z,1.40
2018-11-29T13:00:43.618Z,1.30
2018-11-29T13:03:12.198Z,1.30
2018-11-29T13:05:40.670Z,1.30
2018-11-29T13:08:09.715Z,1.40
2018-11-29T13:10:38.228Z,1.40
2018-11-29T13:13:07.203Z,1.50
2018-11-29T13:15:35.720Z,1.70
2018-11-29T13:18:06.004Z,1.60
2018-11-29T13:20:34.414Z,1.30
2018-11-29T13:23:02.966Z,1.50
2018-11-29T13:25:31.383Z,1.60
2018-11-29T13:27:59.864Z,1.60
2018-11-29T13:30:28.293Z,1.60
2018-11-29T13:32:57.346Z,1.60
2018-11-29T13:35:29.889Z,1.60
2018-11-29T13:38:02.462Z,1.60
2018-11-29T13:40:30.898Z,1.60
2018-11-29T13:42:59.328Z,1.60
2018-11-29T13:45:27.727Z,1.50
2018-11-29T13:47:56.195Z,1.40
2018-11-29T13:50:24.721Z,1.50
2018-11-29T13:52:53.115Z,1.50
2018-11-29T13:55:21.555Z,1.50
2018-11-29T13:57:50.679Z,1.50
2018-11-29T14:00:20.072Z,1.60
2018-11-29T14:02:49.726Z,1.70
2018-11-29T14:05:18.172Z,1.70
2018-11-29T14:07:46.726Z,1.80
2018-11-29T14:10:16.373Z,1.70
2018-11-29T14:12:45.557Z,1.50
2018-11-29T14:15:15.994Z,1.60
2018-11-29T14:17:44.462Z,1.70
2018-11-29T14:20:13.776Z,1.70
2018-11-29T14:22:42.206Z,1.70
2018-11-29T14:25:11.778Z,1.70
2018-11-29T14:27:40.685Z,1.60
2018-11-29T14:30:26.716Z,1.60
2018-11-29T14:32:57.338Z,1.60
2018-11-29T14:35:25.793Z,1.60
2018-11-29T14:37:54.239Z,1.70
2018-11-29T14:40:23.811Z,1.60
2018-11-29T14:42:52.246Z,1.60
2018-11-29T14:45:23.853Z,1.50
2018-11-29T14:47:52.260Z,1.50
2018-11-29T14:50:25.211Z,1.60
2018-11-29T14:52:53.694Z,1.60
2018-11-29T14:55:22.148Z,1.60
2018-11-29T14:57:50.545Z,1.60
2018-11-29T15:00:18.993Z,1.60
2018-11-29T15:02:47.741Z,1.60
2018-11-29T15:05:24.154Z,1.60
2018-11-29T15:07:52.631Z,1.60
2018-11-29T15:10:21.061Z,1.60
2018-11-29T15:12:49.499Z,1.60
2018-11-29T15:15:17.938Z,1.60
2018-11-29T15:17:47.170Z,1.60
2018-11-29T15:20:18.944Z,1.60
2018-11-29T15:22:47.413Z,1.60
2018-11-29T15:25:15.827Z,1.50
2018-11-29T15:27:44.291Z,1.50
2018-11-29T15:30:14.134Z,1.60
2018-11-29T15:32:42.544Z,1.60
2018-11-29T15:35:11.028Z,1.60
2018-11-29T15:37:39.474Z,1.60
2018-11-29T15:40:12.098Z,1.50
2018-11-29T15:42:40.529Z,1.50
2018-11-29T15:45:11.546Z,1.50
2018-11-29T15:47:40.106Z,1.50
2018-11-29T15:50:11.036Z,1.50
2018-11-29T15:52:39.433Z,1.50
2018-11-29T15:55:10.628Z,1.50
2018-11-29T15:59:21.639Z,1.40
2018-11-29T16:01:50.094Z,1.40
2018-11-29T16:04:18.500Z,1.40
2018-11-29T16:06:46.894Z,1.40
2018-11-29T16:09:20.229Z,1.40
2018-11-29T16:11:48.655Z,1.40
2018-11-29T16:14:17.294Z,1.40
2018-11-29T16:16:45.711Z,1.40
2018-11-29T16:19:14.118Z,1.40
2018-11-29T16:21:42.572Z,1.40
2018-11-29T16:24:11.033Z,1.50
2018-11-29T16:26:39.434Z,1.50
2018-11-29T16:29:07.868Z,1.40
2018-11-29T16:31:36.299Z,1.40
2018-11-29T16:34:04.784Z,1.40
2018-11-29T16:36:33.212Z,1.40
2018-11-29T16:39:01.648Z,1.40
2018-11-29T16:41:30.065Z,1.40
2018-11-29T16:43:58.470Z,1.50
2018-11-29T16:46:26.906Z,1.50
2018-11-29T16:48:55.310Z,1.50
2018-11-29T16:51:23.734Z,1.50
2018-11-29T16:53:52.297Z,1.50
2018-11-29T16:56:20.695Z,1.50
2018-11-29T16:58:49.179Z,1.50
2018-11-29T17:01:17.632Z,1.40
2018-11-29T17:03:46.217Z,1.50
2018-11-29T17:06:14.755Z,1.40
2018-11-29T17:08:43.199Z,1.40
2018-11-29T17:11:11.647Z,1.40
2018-11-29T17:13:40.194Z,1.40
2018-11-29T17:16:08.599Z,1.40
2018-11-29T17:18:37.103Z,1.40
2018-11-29T17:21:05.607Z,1.30
2018-11-29T17:23:34.150Z,1.30
2018-11-29T17:26:02.711Z,1.30
2018-11-29T17:28:31.124Z,1.30
2018-11-29T17:30:59.591Z,1.30
2018-11-29T17:33:28.040Z,1.30
2018-11-29T17:35:56.490Z,1.30
2018-11-29T17:38:24.918Z,1.30
2018-11-29T17:40:53.374Z,1.30
2018-11-29T17:43:21.799Z,1.20
2018-11-29T17:45:50.230Z,1.20
2018-11-29T17:48:18.734Z,1.20
2018-11-29T17:50:47.187Z,1.20
2018-11-29T17:53:15.707Z,1.20
2018-11-29T17:55:44.138Z,1.10
2018-11-29T17:58:14.165Z,1.10
2018-11-29T18:00:44.876Z,1.10
2018-11-29T18:03:14.593Z,1.10
2018-11-29T18:05:43.045Z,1.10
2018-11-29T18:08:11.765Z,1.10
2018-11-29T18:10:41.031Z,1.10
2018-11-29T18:13:15.241Z,1.10
2018-11-29T18:15:43.747Z,1.10
2018-11-29T18:18:12.511Z,1.10
2018-11-29T18:20:41.039Z,1.10
2018-11-29T18:23:09.983Z,1.00
2018-11-29T18:25:38.479Z,1.00
2018-11-29T18:28:07.587Z,1.00
2018-11-29T18:30:36.079Z,1.00
2018-11-29T18:33:04.521Z,1.00
2018-11-29T18:35:32.915Z,1.00
2018-11-29T18:38:01.341Z,1.00
2018-11-29T18:40:29.749Z,0.90
2018-11-29T18:42:59.319Z,0.90
2018-11-29T18:45:28.029Z,0.90
2018-11-29T18:47:56.802Z,0.90
2018-11-29T18:50:26.291Z,0.90
2018-11-29T18:52:54.733Z,0.90
2018-11-29T18:55:24.474Z,0.90
2018-11-29T18:57:53.335Z,0.90
2018-11-29T19:00:23.058Z,0.90
2018-11-29T19:02:56.771Z,0.80
2018-11-29T19:05:20.003Z,0.80
2018-11-29T19:07:48.413Z,0.80
2018-11-29T19:10:17.849Z,0.70
2018-11-29T19:12:50.197Z,0.70
2018-11-29T19:15:18.661Z,0.70
2018-11-29T19:17:47.095Z,0.60
2018-11-29T19:20:15.547Z,0.70
2018-11-29T19:22:44.019Z,0.60
2018-11-29T19:25:14.905Z,0.60
2018-11-29T19:27:43.343Z,0.60
2018-11-29T19:30:13.458Z,0.60
2018-11-29T19:32:41.981Z,0.60
2018-11-29T19:35:11.364Z,0.60
2018-11-29T19:37:39.794Z,0.60
2018-11-29T19:40:11.881Z,0.60
2018-11-29T19:42:40.507Z,0.60
2018-11-29T19:45:11.433Z,0.50
2018-11-29T19:47:40.579Z,0.50
2018-11-29T19:50:18.963Z,0.50
2018-11-29T19:52:49.689Z,0.50
2018-11-29T19:55:20.733Z,0.40
2018-11-29T19:57:49.171Z,0.40
2018-11-29T20:00:17.583Z,0.40
2018-11-29T20:02:46.923Z,0.30
2018-11-29T20:05:15.406Z,0.30
2018-11-29T20:07:43.865Z,0.30
2018-11-29T20:10:13.564Z,0.30
2018-11-29T20:12:42.081Z,0.30
2018-11-29T20:15:18.551Z,0.20
2018-11-29T20:17:48.010Z,0.20
2018-11-29T20:20:16.451Z,0.20
2018-11-29T20:22:44.876Z,0.20
2018-11-29T20:25:16.373Z,0.20
2018-11-29T20:27:45.202Z,0.20
2018-11-29T20:30:15.873Z,0.20
2018-11-29T20:32:44.494Z,0.20
2018-11-29T20:35:13.386Z,0.20
2018-11-29T20:37:42.231Z,0.10
2018-11-29T20:40:14.870Z,0.10
2018-11-29T20:42:44.003Z,0.10
2018-11-29T20:45:16.934Z,0.10
2018-11-29T20:47:45.577Z,0.10
2018-11-29T20:50:16.567Z,0.00
2018-11-29T20:52:45.530Z,0.00
2018-11-29T20:55:16.553Z,0.00
2018-11-29T20:57:45.009Z,0.00
2018-11-29T21:00:14.593Z,-0.10
2018-11-29T21:02:43.428Z,-0.10
2018-11-29T21:05:14.093Z,-0.10
2018-11-29T21:07:45.018Z,0.00
2018-11-29T21:10:16.990Z,0.00
2018-11-29T21:12:45.583Z,0.00
2018-11-29T21:15:14.194Z,0.00
2018-11-29T21:17:42.666Z,0.00
2018-11-29T21:20:13.487Z,0.00
2018-11-29T21:22:42.989Z,0.10
2018-11-29T21:25:12.807Z,0.10
2018-11-29T21:27:41.235Z,0.10
2018-11-29T21:30:13.012Z,0.10
2018-11-29T21:32:41.573Z,0.10
2018-11-29T21:35:12.399Z,0.10
2018-11-29T21:37:40.845Z,0.10
2018-11-29T21:40:14.192Z,0.20
2018-11-29T21:42:42.624Z,0.20
2018-11-29T21:45:11.078Z,0.20
2018-11-29T21:47:39.582Z,0.20
2018-11-29T21:50:08.654Z,0.20
2018-11-29T21:52:37.080Z,0.20
2018-11-29T21:55:06.218Z,0.20
2018-11-29T21:57:34.678Z,0.20
2018-11-29T22:00:03.733Z,0.20
2018-11-29T22:02:32.178Z,0.20
2018-11-29T22:05:00.765Z,0.20
2018-11-29T22:07:29.205Z,0.30
2018-11-29T22:09:57.596Z,0.20
2018-11-29T22:12:25.987Z,0.30
2018-11-29T22:14:54.406Z,0.30
2018-11-29T22:17:22.807Z,0.30
2018-11-29T22:19:51.214Z,0.30
2018-11-29T22:22:19.806Z,0.30
2018-11-29T22:24:48.190Z,0.30
2018-11-29T22:27:16.582Z,0.30
2018-11-29T22:29:44.994Z,0.30
2018-11-29T22:32:13.398Z,0.20
2018-11-29T22:34:41.813Z,0.30
2018-11-29T22:37:10.235Z,0.20
2018-11-29T22:39:38.747Z,0.20
2018-11-29T22:42:07.172Z,0.20
2018-11-29T22:44:35.614Z,0.20
2018-11-29T22:47:04.014Z,0.20
2018-11-29T22:49:32.795Z,0.20
2018-11-29T22:52:01.177Z,0.20
2018-11-29T22:54:29.574Z,0.20
2018-11-29T22:56:57.979Z,0.20
2018-11-29T22:59:26.384Z,0.10
2018-11-29T23:01:54.794Z,0.20
2018-11-29T23:04:23.199Z,0.20
2018-11-29T23:06:51.689Z,0.20
2018-11-29T23:09:20.134Z,0.20
2018-11-29T23:11:48.543Z,0.20
2018-11-29T23:14:16.967Z,0.20
2018-11-29T23:16:45.366Z,0.20
2018-11-29T23:19:13.754Z,0.20
2018-11-29T23:21:42.156Z,0.20
2018-11-29T23:24:10.531Z,0.20
2018-11-29T23:26:38.970Z,0.20
2018-11-29T23:29:07.345Z,0.20
2018-11-29T23:31:35.778Z,0.20
2018-11-29T23:34:04.230Z,0.20
2018-11-29T23:36:32.651Z,0.30
2018-11-29T23:39:01.063Z,0.30
2018-11-29T23:41:29.469Z,0.20
2018-11-29T23:43:57.860Z,0.20
2018-11-29T23:46:26.269Z,0.20
2018-11-29T23:48:54.630Z,0.20
2018-11-29T23:51:23.040Z,0.20
2018-11-29T23:53:51.457Z,0.20
2018-11-29T23:56:19.826Z,0.20
2018-11-29T23:58:48.231Z,0.20
